sensor_id;sensor_type;location;lat;lon;timestamp;P1;durP1;ratioP1;P2;durP2;ratioP2
39098;SDS011;24844;52.380;7.018;2023-08-06T00:02:13;13.30;;;8.50;;
39098;SDS011;24844;52.380;7.018;2023-08-06T00:04:38;12.40;;;8.90;;
39098;SDS011;24844;52.380;7.018;2023-08-06T00:07:04;11.85;;;8.93;;
39098;SDS011;24844;52.380;7.018;2023-08-06T00:09:30;12.48;;;9.25;;
39098;SDS011;24844;52.380;7.018;2023-08-06T00:11:55;11.00;;;9.73;;
39098;SDS011;24844;52.380;7.018;2023-08-06T00:14:21;9.85;;;8.30;;
39098;SDS011;24844;52.380;7.018;2023-08-06T00:16:47;15.70;;;10.90;;
39098;SDS011;24844;52.380;7.018;2023-08-06T00:19:12;11.65;;;8.60;;
39098;SDS011;24844;52.380;7.018;2023-08-06T00:21:38;12.60;;;10.77;;
39098;SDS011;24844;52.380;7.018;2023-08-06T00:24:04;12.55;;;10.85;;
39098;SDS011;24844;52.380;7.018;2023-08-06T00:26:29;12.60;;;11.02;;
39098;SDS011;24844;52.380;7.018;2023-08-06T00:28:55;16.75;;;11.40;;
39098;SDS011;24844;52.380;7.018;2023-08-06T00:31:20;14.65;;;11.52;;
39098;SDS011;24844;52.380;7.018;2023-08-06T00:33:46;12.13;;;9.75;;
39098;SDS011;24844;52.380;7.018;2023-08-06T00:36:12;17.17;;;11.63;;
39098;SDS011;24844;52.380;7.018;2023-08-06T00:38:37;13.15;;;10.38;;
39098;SDS011;24844;52.380;7.018;2023-08-06T00:41:03;13.85;;;10.95;;
39098;SDS011;24844;52.380;7.018;2023-08-06T00:43:28;17.55;;;11.95;;
39098;SDS011;24844;52.380;7.018;2023-08-06T00:45:54;12.55;;;10.10;;
39098;SDS011;24844;52.380;7.018;2023-08-06T00:48:20;16.55;;;13.27;;
39098;SDS011;24844;52.380;7.018;2023-08-06T00:50:46;14.55;;;11.43;;
39098;SDS011;24844;52.380;7.018;2023-08-06T00:53:12;16.58;;;12.70;;
39098;SDS011;24844;52.380;7.018;2023-08-06T00:55:38;25.60;;;14.57;;
39098;SDS011;24844;52.380;7.018;2023-08-06T00:58:04;15.40;;;12.30;;
39098;SDS011;24844;52.380;7.018;2023-08-06T01:00:30;16.55;;;13.70;;
39098;SDS011;24844;52.380;7.018;2023-08-06T01:02:55;20.60;;;13.40;;
39098;SDS011;24844;52.380;7.018;2023-08-06T01:05:21;16.35;;;11.00;;
39098;SDS011;24844;52.380;7.018;2023-08-06T01:15:50;21.45;;;14.23;;
39098;SDS011;24844;52.380;7.018;2023-08-06T01:18:22;21.48;;;15.25;;
39098;SDS011;24844;52.380;7.018;2023-08-06T01:20:48;18.75;;;13.73;;
39098;SDS011;24844;52.380;7.018;2023-08-06T01:23:14;19.77;;;13.05;;
39098;SDS011;24844;52.380;7.018;2023-08-06T01:25:49;20.08;;;13.00;;
39098;SDS011;24844;52.380;7.018;2023-08-06T01:31:15;23.08;;;14.77;;
39098;SDS011;24844;52.380;7.018;2023-08-06T01:34:09;18.10;;;13.50;;
39098;SDS011;24844;52.380;7.018;2023-08-06T01:36:40;16.67;;;12.75;;
39098;SDS011;24844;52.380;7.018;2023-08-06T01:39:06;17.63;;;14.18;;
39098;SDS011;24844;52.380;7.018;2023-08-06T01:41:32;23.40;;;15.90;;
39098;SDS011;24844;52.380;7.018;2023-08-06T01:43:58;18.63;;;13.77;;
39098;SDS011;24844;52.380;7.018;2023-08-06T01:46:23;20.80;;;15.20;;
39098;SDS011;24844;52.380;7.018;2023-08-06T01:48:49;18.75;;;14.48;;
39098;SDS011;24844;52.380;7.018;2023-08-06T01:51:14;20.65;;;14.65;;
39098;SDS011;24844;52.380;7.018;2023-08-06T01:53:40;29.20;;;19.05;;
39098;SDS011;24844;52.380;7.018;2023-08-06T01:56:06;23.60;;;16.80;;
39098;SDS011;24844;52.380;7.018;2023-08-06T01:58:31;21.65;;;15.07;;
39098;SDS011;24844;52.380;7.018;2023-08-06T02:00:57;25.42;;;16.70;;
39098;SDS011;24844;52.380;7.018;2023-08-06T02:03:22;25.45;;;16.15;;
39098;SDS011;24844;52.380;7.018;2023-08-06T02:05:48;21.05;;;15.60;;
39098;SDS011;24844;52.380;7.018;2023-08-06T02:08:14;18.75;;;13.38;;
39098;SDS011;24844;52.380;7.018;2023-08-06T02:10:39;15.65;;;12.82;;
39098;SDS011;24844;52.380;7.018;2023-08-06T02:13:06;19.80;;;13.77;;
39098;SDS011;24844;52.380;7.018;2023-08-06T02:15:32;23.48;;;15.77;;
39098;SDS011;24844;52.380;7.018;2023-08-06T02:17:57;20.17;;;15.02;;
39098;SDS011;24844;52.380;7.018;2023-08-06T02:20:23;23.20;;;14.88;;
39098;SDS011;24844;52.380;7.018;2023-08-06T02:22:48;22.95;;;15.25;;
39098;SDS011;24844;52.380;7.018;2023-08-06T02:25:14;21.48;;;15.27;;
39098;SDS011;24844;52.380;7.018;2023-08-06T02:27:39;23.88;;;16.55;;
39098;SDS011;24844;52.380;7.018;2023-08-06T02:30:05;25.17;;;16.45;;
39098;SDS011;24844;52.380;7.018;2023-08-06T02:32:31;21.30;;;16.90;;
39098;SDS011;24844;52.380;7.018;2023-08-06T02:34:58;27.58;;;17.77;;
39098;SDS011;24844;52.380;7.018;2023-08-06T02:37:23;29.10;;;19.42;;
39098;SDS011;24844;52.380;7.018;2023-08-06T02:39:49;27.95;;;18.52;;
39098;SDS011;24844;52.380;7.018;2023-08-06T02:42:14;32.35;;;23.02;;
39098;SDS011;24844;52.380;7.018;2023-08-06T02:44:40;35.70;;;23.13;;
39098;SDS011;24844;52.380;7.018;2023-08-06T02:47:05;39.83;;;25.08;;
39098;SDS011;24844;52.380;7.018;2023-08-06T02:49:31;37.63;;;24.23;;
39098;SDS011;24844;52.380;7.018;2023-08-06T02:51:56;38.88;;;22.05;;
39098;SDS011;24844;52.380;7.018;2023-08-06T02:54:22;45.00;;;25.75;;
39098;SDS011;24844;52.380;7.018;2023-08-06T02:56:48;41.78;;;26.25;;
39098;SDS011;24844;52.380;7.018;2023-08-06T02:59:14;41.05;;;24.73;;
39098;SDS011;24844;52.380;7.018;2023-08-06T03:01:39;39.33;;;24.23;;
39098;SDS011;24844;52.380;7.018;2023-08-06T03:04:05;39.97;;;24.77;;
39098;SDS011;24844;52.380;7.018;2023-08-06T03:06:30;38.70;;;24.05;;
39098;SDS011;24844;52.380;7.018;2023-08-06T03:08:56;36.95;;;22.35;;
39098;SDS011;24844;52.380;7.018;2023-08-06T03:11:22;33.55;;;22.13;;
39098;SDS011;24844;52.380;7.018;2023-08-06T03:13:48;35.45;;;22.08;;
39098;SDS011;24844;52.380;7.018;2023-08-06T03:16:14;30.83;;;20.92;;
39098;SDS011;24844;52.380;7.018;2023-08-06T03:18:40;36.30;;;23.70;;
39098;SDS011;24844;52.380;7.018;2023-08-06T03:21:05;37.75;;;23.23;;
39098;SDS011;24844;52.380;7.018;2023-08-06T03:23:31;26.92;;;18.73;;
39098;SDS011;24844;52.380;7.018;2023-08-06T03:26:03;38.95;;;22.02;;
39098;SDS011;24844;52.380;7.018;2023-08-06T03:28:29;34.75;;;20.55;;
39098;SDS011;24844;52.380;7.018;2023-08-06T03:31:04;36.03;;;22.15;;
39098;SDS011;24844;52.380;7.018;2023-08-06T03:33:29;32.10;;;20.90;;
39098;SDS011;24844;52.380;7.018;2023-08-06T03:35:55;31.98;;;19.17;;
39098;SDS011;24844;52.380;7.018;2023-08-06T03:38:21;22.60;;;16.25;;
39098;SDS011;24844;52.380;7.018;2023-08-06T03:40:47;37.10;;;21.77;;
39098;SDS011;24844;52.380;7.018;2023-08-06T03:43:13;38.63;;;22.70;;
39098;SDS011;24844;52.380;7.018;2023-08-06T03:45:40;35.08;;;22.83;;
39098;SDS011;24844;52.380;7.018;2023-08-06T03:48:06;43.88;;;25.33;;
39098;SDS011;24844;52.380;7.018;2023-08-06T03:50:31;40.60;;;24.80;;
39098;SDS011;24844;52.380;7.018;2023-08-06T03:52:57;28.67;;;17.88;;
39098;SDS011;24844;52.380;7.018;2023-08-06T03:55:23;35.20;;;23.05;;
39098;SDS011;24844;52.380;7.018;2023-08-06T03:57:48;41.00;;;24.10;;
39098;SDS011;24844;52.380;7.018;2023-08-06T04:00:14;39.78;;;23.85;;
39098;SDS011;24844;52.380;7.018;2023-08-06T04:02:39;38.97;;;23.85;;
39098;SDS011;24844;52.380;7.018;2023-08-06T04:05:05;45.33;;;27.77;;
39098;SDS011;24844;52.380;7.018;2023-08-06T04:07:31;38.55;;;25.05;;
39098;SDS011;24844;52.380;7.018;2023-08-06T04:09:57;39.40;;;23.60;;
39098;SDS011;24844;52.380;7.018;2023-08-06T04:12:24;32.17;;;20.45;;
39098;SDS011;24844;52.380;7.018;2023-08-06T04:14:50;46.65;;;26.52;;
39098;SDS011;24844;52.380;7.018;2023-08-06T04:17:19;41.60;;;25.45;;
39098;SDS011;24844;52.380;7.018;2023-08-06T04:19:50;46.72;;;26.75;;
39098;SDS011;24844;52.380;7.018;2023-08-06T04:22:16;44.03;;;25.65;;
39098;SDS011;24844;52.380;7.018;2023-08-06T04:24:42;41.53;;;24.48;;
39098;SDS011;24844;52.380;7.018;2023-08-06T04:27:08;46.78;;;26.80;;
39098;SDS011;24844;52.380;7.018;2023-08-06T04:29:34;43.10;;;25.10;;
39098;SDS011;24844;52.380;7.018;2023-08-06T04:32:00;38.28;;;25.15;;
39098;SDS011;24844;52.380;7.018;2023-08-06T04:34:26;37.70;;;22.90;;
39098;SDS011;24844;52.380;7.018;2023-08-06T04:36:51;33.22;;;21.70;;
39098;SDS011;24844;52.380;7.018;2023-08-06T04:39:17;37.78;;;24.17;;
39098;SDS011;24844;52.380;7.018;2023-08-06T04:41:43;42.78;;;27.63;;
39098;SDS011;24844;52.380;7.018;2023-08-06T04:44:08;40.95;;;25.33;;
39098;SDS011;24844;52.380;7.018;2023-08-06T04:46:34;36.72;;;23.00;;
39098;SDS011;24844;52.380;7.018;2023-08-06T04:48:59;31.58;;;21.27;;
39098;SDS011;24844;52.380;7.018;2023-08-06T04:51:25;28.33;;;20.02;;
39098;SDS011;24844;52.380;7.018;2023-08-06T04:53:50;25.90;;;20.35;;
39098;SDS011;24844;52.380;7.018;2023-08-06T04:56:16;22.88;;;16.95;;
39098;SDS011;24844;52.380;7.018;2023-08-06T04:58:41;21.50;;;16.13;;
39098;SDS011;24844;52.380;7.018;2023-08-06T05:01:07;20.00;;;14.85;;
39098;SDS011;24844;52.380;7.018;2023-08-06T05:03:33;22.48;;;16.50;;
39098;SDS011;24844;52.380;7.018;2023-08-06T05:05:58;22.48;;;15.45;;
39098;SDS011;24844;52.380;7.018;2023-08-06T05:08:24;21.77;;;14.43;;
39098;SDS011;24844;52.380;7.018;2023-08-06T05:10:49;17.13;;;13.65;;
39098;SDS011;24844;52.380;7.018;2023-08-06T05:13:15;14.50;;;12.60;;
39098;SDS011;24844;52.380;7.018;2023-08-06T05:15:41;14.90;;;11.32;;
39098;SDS011;24844;52.380;7.018;2023-08-06T05:18:07;14.65;;;10.70;;
39098;SDS011;24844;52.380;7.018;2023-08-06T05:20:36;11.52;;;10.00;;
39098;SDS011;24844;52.380;7.018;2023-08-06T05:23:03;15.30;;;10.25;;
39098;SDS011;24844;52.380;7.018;2023-08-06T05:25:29;12.43;;;9.02;;
39098;SDS011;24844;52.380;7.018;2023-08-06T05:27:55;10.43;;;8.55;;
39098;SDS011;24844;52.380;7.018;2023-08-06T05:30:20;9.63;;;7.82;;
39098;SDS011;24844;52.380;7.018;2023-08-06T05:32:46;9.68;;;7.40;;
39098;SDS011;24844;52.380;7.018;2023-08-06T05:35:11;9.68;;;8.32;;
39098;SDS011;24844;52.380;7.018;2023-08-06T05:37:37;8.60;;;7.68;;
39098;SDS011;24844;52.380;7.018;2023-08-06T05:40:03;8.85;;;7.50;;
39098;SDS011;24844;52.380;7.018;2023-08-06T05:42:29;10.38;;;7.55;;
39098;SDS011;24844;52.380;7.018;2023-08-06T05:44:54;11.00;;;8.13;;
39098;SDS011;24844;52.380;7.018;2023-08-06T05:47:20;8.35;;;7.38;;
39098;SDS011;24844;52.380;7.018;2023-08-06T05:49:46;10.38;;;7.43;;
39098;SDS011;24844;52.380;7.018;2023-08-06T05:52:11;7.53;;;6.47;;
39098;SDS011;24844;52.380;7.018;2023-08-06T05:54:37;8.55;;;7.53;;
39098;SDS011;24844;52.380;7.018;2023-08-06T05:57:03;10.10;;;7.45;;
39098;SDS011;24844;52.380;7.018;2023-08-06T05:59:28;8.50;;;7.05;;
39098;SDS011;24844;52.380;7.018;2023-08-06T06:01:54;12.07;;;8.90;;
39098;SDS011;24844;52.380;7.018;2023-08-06T06:04:20;6.93;;;6.03;;
39098;SDS011;24844;52.380;7.018;2023-08-06T06:06:46;8.88;;;7.78;;
39098;SDS011;24844;52.380;7.018;2023-08-06T06:09:11;9.50;;;7.32;;
39098;SDS011;24844;52.380;7.018;2023-08-06T06:11:37;11.88;;;7.88;;
39098;SDS011;24844;52.380;7.018;2023-08-06T06:14:02;11.15;;;7.72;;
39098;SDS011;24844;52.380;7.018;2023-08-06T06:16:28;10.35;;;7.88;;
39098;SDS011;24844;52.380;7.018;2023-08-06T06:18:53;11.15;;;7.80;;
39098;SDS011;24844;52.380;7.018;2023-08-06T06:21:19;8.43;;;7.57;;
39098;SDS011;24844;52.380;7.018;2023-08-06T06:23:45;7.78;;;6.63;;
39098;SDS011;24844;52.380;7.018;2023-08-06T06:26:11;10.60;;;7.47;;
39098;SDS011;24844;52.380;7.018;2023-08-06T06:28:37;15.32;;;8.48;;
39098;SDS011;24844;52.380;7.018;2023-08-06T06:31:03;9.95;;;8.30;;
39098;SDS011;24844;52.380;7.018;2023-08-06T06:33:29;11.02;;;8.32;;
39098;SDS011;24844;52.380;7.018;2023-08-06T06:35:55;9.73;;;7.03;;
39098;SDS011;24844;52.380;7.018;2023-08-06T06:38:20;13.48;;;7.55;;
39098;SDS011;24844;52.380;7.018;2023-08-06T06:40:58;14.45;;;7.63;;
39098;SDS011;24844;52.380;7.018;2023-08-06T06:43:23;11.23;;;8.10;;
39098;SDS011;24844;52.380;7.018;2023-08-06T06:45:53;14.30;;;7.88;;
39098;SDS011;24844;52.380;7.018;2023-08-06T06:48:20;11.20;;;7.35;;
39098;SDS011;24844;52.380;7.018;2023-08-06T06:50:49;8.10;;;6.43;;
39098;SDS011;24844;52.380;7.018;2023-08-06T06:53:15;7.82;;;6.97;;
39098;SDS011;24844;52.380;7.018;2023-08-06T06:55:40;8.95;;;8.10;;
39098;SDS011;24844;52.380;7.018;2023-08-06T06:58:06;14.40;;;7.72;;
39098;SDS011;24844;52.380;7.018;2023-08-06T07:00:31;9.10;;;7.88;;
39098;SDS011;24844;52.380;7.018;2023-08-06T07:02:57;8.10;;;7.30;;
39098;SDS011;24844;52.380;7.018;2023-08-06T07:05:22;10.02;;;7.50;;
39098;SDS011;24844;52.380;7.018;2023-08-06T07:07:48;12.13;;;10.10;;
39098;SDS011;24844;52.380;7.018;2023-08-06T07:10:14;11.05;;;8.55;;
39098;SDS011;24844;52.380;7.018;2023-08-06T07:12:39;9.57;;;8.38;;
39098;SDS011;24844;52.380;7.018;2023-08-06T07:15:05;10.23;;;8.38;;
39098;SDS011;24844;52.380;7.018;2023-08-06T07:17:31;10.57;;;8.30;;
39098;SDS011;24844;52.380;7.018;2023-08-06T07:19:57;11.93;;;10.20;;
39098;SDS011;24844;52.380;7.018;2023-08-06T07:22:23;10.57;;;9.48;;
39098;SDS011;24844;52.380;7.018;2023-08-06T07:24:48;17.27;;;10.32;;
39098;SDS011;24844;52.380;7.018;2023-08-06T07:27:14;10.35;;;9.23;;
39098;SDS011;24844;52.380;7.018;2023-08-06T07:29:40;11.25;;;10.05;;
39098;SDS011;24844;52.380;7.018;2023-08-06T07:32:06;10.63;;;8.68;;
39098;SDS011;24844;52.380;7.018;2023-08-06T07:34:32;14.48;;;8.48;;
39098;SDS011;24844;52.380;7.018;2023-08-06T07:36:58;9.10;;;7.82;;
39098;SDS011;24844;52.380;7.018;2023-08-06T07:39:23;12.23;;;9.88;;
39098;SDS011;24844;52.380;7.018;2023-08-06T07:41:49;8.05;;;6.80;;
39098;SDS011;24844;52.380;7.018;2023-08-06T07:44:15;9.60;;;8.18;;
39098;SDS011;24844;52.380;7.018;2023-08-06T07:46:40;11.68;;;9.63;;
39098;SDS011;24844;52.380;7.018;2023-08-06T07:49:06;13.20;;;9.93;;
39098;SDS011;24844;52.380;7.018;2023-08-06T07:51:33;12.30;;;10.63;;
39098;SDS011;24844;52.380;7.018;2023-08-06T07:53:59;12.05;;;10.40;;
39098;SDS011;24844;52.380;7.018;2023-08-06T07:56:24;12.65;;;11.02;;
39098;SDS011;24844;52.380;7.018;2023-08-06T07:58:50;15.60;;;11.88;;
39098;SDS011;24844;52.380;7.018;2023-08-06T08:01:15;18.42;;;12.20;;
39098;SDS011;24844;52.380;7.018;2023-08-06T08:03:41;14.65;;;12.00;;
39098;SDS011;24844;52.380;7.018;2023-08-06T08:06:06;13.80;;;12.02;;
39098;SDS011;24844;52.380;7.018;2023-08-06T08:08:32;15.60;;;12.95;;
39098;SDS011;24844;52.380;7.018;2023-08-06T08:10:58;12.05;;;10.63;;
39098;SDS011;24844;52.380;7.018;2023-08-06T08:13:25;14.02;;;11.32;;
39098;SDS011;24844;52.380;7.018;2023-08-06T08:15:55;18.33;;;10.13;;
39098;SDS011;24844;52.380;7.018;2023-08-06T08:18:22;13.05;;;11.68;;
39098;SDS011;24844;52.380;7.018;2023-08-06T08:20:48;15.23;;;12.75;;
39098;SDS011;24844;52.380;7.018;2023-08-06T08:23:13;12.02;;;10.80;;
39098;SDS011;24844;52.380;7.018;2023-08-06T08:25:39;12.98;;;11.35;;
39098;SDS011;24844;52.380;7.018;2023-08-06T08:28:04;14.55;;;11.35;;
39098;SDS011;24844;52.380;7.018;2023-08-06T08:30:30;21.45;;;9.95;;
39098;SDS011;24844;52.380;7.018;2023-08-06T08:32:55;10.13;;;8.75;;
39098;SDS011;24844;52.380;7.018;2023-08-06T08:35:21;249.05;;;22.90;;
39098;SDS011;24844;52.380;7.018;2023-08-06T08:37:47;8.80;;;7.97;;
39098;SDS011;24844;52.380;7.018;2023-08-06T08:40:13;37.83;;;9.30;;
39098;SDS011;24844;52.380;7.018;2023-08-06T08:42:40;6.68;;;6.05;;
39098;SDS011;24844;52.380;7.018;2023-08-06T08:45:06;10.48;;;6.22;;
39098;SDS011;24844;52.380;7.018;2023-08-06T08:47:41;8.23;;;7.15;;
39098;SDS011;24844;52.380;7.018;2023-08-06T08:50:12;7.03;;;5.07;;
39098;SDS011;24844;52.380;7.018;2023-08-06T08:52:39;7.78;;;5.45;;
39098;SDS011;24844;52.380;7.018;2023-08-06T08:55:06;7.97;;;6.25;;
39098;SDS011;24844;52.380;7.018;2023-08-06T08:57:32;8.55;;;5.70;;
39098;SDS011;24844;52.380;7.018;2023-08-06T08:59:58;6.63;;;5.95;;
39098;SDS011;24844;52.380;7.018;2023-08-06T09:02:24;5.70;;;4.90;;
39098;SDS011;24844;52.380;7.018;2023-08-06T09:04:55;7.25;;;6.32;;
39098;SDS011;24844;52.380;7.018;2023-08-06T09:07:24;6.05;;;4.15;;
39098;SDS011;24844;52.380;7.018;2023-08-06T09:09:51;7.03;;;5.18;;
39098;SDS011;24844;52.380;7.018;2023-08-06T09:12:18;6.63;;;5.75;;
39098;SDS011;24844;52.380;7.018;2023-08-06T09:14:43;7.13;;;4.82;;
39098;SDS011;24844;52.380;7.018;2023-08-06T09:17:09;4.40;;;4.00;;
39098;SDS011;24844;52.380;7.018;2023-08-06T09:19:39;7.07;;;6.38;;
39098;SDS011;24844;52.380;7.018;2023-08-06T09:22:11;6.93;;;5.85;;
39098;SDS011;24844;52.380;7.018;2023-08-06T09:24:38;8.93;;;6.57;;
39098;SDS011;24844;52.380;7.018;2023-08-06T09:27:05;5.88;;;5.28;;
39098;SDS011;24844;52.380;7.018;2023-08-06T09:29:39;8.27;;;6.28;;
39098;SDS011;24844;52.380;7.018;2023-08-06T09:32:10;8.32;;;6.53;;
39098;SDS011;24844;52.380;7.018;2023-08-06T09:34:38;7.90;;;5.65;;
39098;SDS011;24844;52.380;7.018;2023-08-06T09:37:05;6.05;;;5.38;;
39098;SDS011;24844;52.380;7.018;2023-08-06T09:39:31;7.15;;;5.07;;
39098;SDS011;24844;52.380;7.018;2023-08-06T09:41:57;5.97;;;5.38;;
39098;SDS011;24844;52.380;7.018;2023-08-06T09:44:24;6.90;;;6.22;;
39098;SDS011;24844;52.380;7.018;2023-08-06T09:46:52;7.43;;;5.47;;
39098;SDS011;24844;52.380;7.018;2023-08-06T09:49:25;6.13;;;4.75;;
39098;SDS011;24844;52.380;7.018;2023-08-06T09:51:52;6.43;;;5.55;;
39098;SDS011;24844;52.380;7.018;2023-08-06T09:54:21;6.55;;;5.95;;
39098;SDS011;24844;52.380;7.018;2023-08-06T09:56:48;7.75;;;6.82;;
39098;SDS011;24844;52.380;7.018;2023-08-06T09:59:14;8.00;;;5.70;;
39098;SDS011;24844;52.380;7.018;2023-08-06T10:01:41;7.80;;;6.90;;
39098;SDS011;24844;52.380;7.018;2023-08-06T10:04:06;8.25;;;7.45;;
39098;SDS011;24844;52.380;7.018;2023-08-06T10:06:34;7.25;;;6.55;;
39098;SDS011;24844;52.380;7.018;2023-08-06T10:09:05;6.55;;;5.95;;
39098;SDS011;24844;52.380;7.018;2023-08-06T10:11:31;12.13;;;6.30;;
39098;SDS011;24844;52.380;7.018;2023-08-06T10:14:06;5.82;;;5.07;;
39098;SDS011;24844;52.380;7.018;2023-08-06T10:16:45;7.43;;;5.80;;
39098;SDS011;24844;52.380;7.018;2023-08-06T10:19:12;7.75;;;6.18;;
39098;SDS011;24844;52.380;7.018;2023-08-06T10:21:40;8.57;;;6.45;;
39098;SDS011;24844;52.380;7.018;2023-08-06T10:24:08;6.68;;;6.10;;
39098;SDS011;24844;52.380;7.018;2023-08-06T10:26:35;15.45;;;6.25;;
39098;SDS011;24844;52.380;7.018;2023-08-06T10:29:01;7.22;;;6.53;;
39098;SDS011;24844;52.380;7.018;2023-08-06T10:31:53;8.52;;;7.68;;
39098;SDS011;24844;52.380;7.018;2023-08-06T10:34:22;7.20;;;6.50;;
39098;SDS011;24844;52.380;7.018;2023-08-06T10:36:47;9.35;;;7.80;;
39098;SDS011;24844;52.380;7.018;2023-08-06T10:39:14;9.75;;;8.73;;
39098;SDS011;24844;52.380;7.018;2023-08-06T10:41:40;16.88;;;15.27;;
39098;SDS011;24844;52.380;7.018;2023-08-06T10:44:08;12.95;;;11.70;;
39098;SDS011;24844;52.380;7.018;2023-08-06T10:46:35;9.18;;;8.23;;
39098;SDS011;24844;52.380;7.018;2023-08-06T10:49:03;10.02;;;8.70;;
39098;SDS011;24844;52.380;7.018;2023-08-06T10:51:29;9.18;;;8.35;;
39098;SDS011;24844;52.380;7.018;2023-08-06T10:53:55;10.07;;;8.50;;
39098;SDS011;24844;52.380;7.018;2023-08-06T10:56:23;9.70;;;8.80;;
39098;SDS011;24844;52.380;7.018;2023-08-06T10:58:55;8.32;;;7.43;;
39098;SDS011;24844;52.380;7.018;2023-08-06T11:01:22;12.95;;;11.68;;
39098;SDS011;24844;52.380;7.018;2023-08-06T11:03:48;8.63;;;7.80;;
39098;SDS011;24844;52.380;7.018;2023-08-06T11:06:21;8.25;;;7.53;;
39098;SDS011;24844;52.380;7.018;2023-08-06T11:08:49;7.65;;;6.90;;
39098;SDS011;24844;52.380;7.018;2023-08-06T11:11:16;8.40;;;7.63;;
39098;SDS011;24844;52.380;7.018;2023-08-06T11:13:42;6.35;;;5.75;;
39098;SDS011;24844;52.380;7.018;2023-08-06T11:16:11;7.15;;;5.95;;
39098;SDS011;24844;52.380;7.018;2023-08-06T11:18:38;6.60;;;5.90;;
39098;SDS011;24844;52.380;7.018;2023-08-06T11:21:05;5.72;;;5.22;;
39098;SDS011;24844;52.380;7.018;2023-08-06T11:23:32;5.70;;;5.20;;
39098;SDS011;24844;52.380;7.018;2023-08-06T11:25:59;6.47;;;5.88;;
39098;SDS011;24844;52.380;7.018;2023-08-06T11:28:25;8.43;;;5.72;;
39098;SDS011;24844;52.380;7.018;2023-08-06T11:30:51;5.22;;;4.00;;
39098;SDS011;24844;52.380;7.018;2023-08-06T11:33:26;5.10;;;4.65;;
39098;SDS011;24844;52.380;7.018;2023-08-06T11:35:56;5.18;;;3.67;;
39098;SDS011;24844;52.380;7.018;2023-08-06T11:38:26;3.42;;;2.85;;
39098;SDS011;24844;52.380;7.018;2023-08-06T11:40:53;3.30;;;2.67;;
39098;SDS011;24844;52.380;7.018;2023-08-06T11:43:19;4.75;;;2.80;;
39098;SDS011;24844;52.380;7.018;2023-08-06T11:45:51;4.82;;;4.35;;
39098;SDS011;24844;52.380;7.018;2023-08-06T11:48:19;4.40;;;3.45;;
39098;SDS011;24844;52.380;7.018;2023-08-06T11:50:45;6.50;;;4.70;;
39098;SDS011;24844;52.380;7.018;2023-08-06T11:53:14;3.25;;;2.35;;
39098;SDS011;24844;52.380;7.018;2023-08-06T11:55:40;4.05;;;2.88;;
39098;SDS011;24844;52.380;7.018;2023-08-06T11:58:06;5.75;;;4.57;;
39098;SDS011;24844;52.380;7.018;2023-08-06T12:00:32;4.85;;;4.45;;
39098;SDS011;24844;52.380;7.018;2023-08-06T12:02:57;6.38;;;5.72;;
39098;SDS011;24844;52.380;7.018;2023-08-06T12:05:23;5.07;;;4.30;;
39098;SDS011;24844;52.380;7.018;2023-08-06T12:07:58;3.53;;;3.22;;
39098;SDS011;24844;52.380;7.018;2023-08-06T12:10:25;5.10;;;3.70;;
39098;SDS011;24844;52.380;7.018;2023-08-06T12:12:53;4.10;;;3.67;;
39098;SDS011;24844;52.380;7.018;2023-08-06T12:15:19;4.35;;;2.55;;
39098;SDS011;24844;52.380;7.018;2023-08-06T12:17:44;3.03;;;2.72;;
39098;SDS011;24844;52.380;7.018;2023-08-06T12:20:10;5.63;;;3.22;;
39098;SDS011;24844;52.380;7.018;2023-08-06T12:22:36;4.00;;;3.60;;
39098;SDS011;24844;52.380;7.018;2023-08-06T12:25:05;4.40;;;3.90;;
39098;SDS011;24844;52.380;7.018;2023-08-06T12:30:01;9.70;;;4.85;;
39098;SDS011;24844;52.380;7.018;2023-08-06T12:32:28;5.63;;;5.00;;
39098;SDS011;24844;52.380;7.018;2023-08-06T12:34:54;7.80;;;5.88;;
39098;SDS011;24844;52.380;7.018;2023-08-06T12:37:20;5.22;;;4.57;;
39098;SDS011;24844;52.380;7.018;2023-08-06T12:39:45;4.97;;;4.10;;
39098;SDS011;24844;52.380;7.018;2023-08-06T12:42:11;6.00;;;5.40;;
39098;SDS011;24844;52.380;7.018;2023-08-06T12:44:38;3.97;;;3.67;;
39098;SDS011;24844;52.380;7.018;2023-08-06T12:47:03;6.18;;;4.30;;
39098;SDS011;24844;52.380;7.018;2023-08-06T12:49:29;6.47;;;3.97;;
39098;SDS011;24844;52.380;7.018;2023-08-06T12:51:56;6.05;;;3.88;;
39098;SDS011;24844;52.380;7.018;2023-08-06T12:54:22;3.17;;;2.90;;
39098;SDS011;24844;52.380;7.018;2023-08-06T12:56:48;6.25;;;5.75;;
39098;SDS011;24844;52.380;7.018;2023-08-06T12:59:14;3.88;;;3.30;;
39098;SDS011;24844;52.380;7.018;2023-08-06T13:01:41;5.45;;;4.03;;
39098;SDS011;24844;52.380;7.018;2023-08-06T13:04:07;4.20;;;2.60;;
39098;SDS011;24844;52.380;7.018;2023-08-06T13:06:33;2.58;;;2.38;;
39098;SDS011;24844;52.380;7.018;2023-08-06T13:09:11;4.63;;;3.58;;
39098;SDS011;24844;52.380;7.018;2023-08-06T13:11:38;5.22;;;3.20;;
39098;SDS011;24844;52.380;7.018;2023-08-06T13:14:06;4.43;;;2.80;;
39098;SDS011;24844;52.380;7.018;2023-08-06T13:16:33;3.78;;;3.47;;
39098;SDS011;24844;52.380;7.018;2023-08-06T13:18:59;4.35;;;3.05;;
39098;SDS011;24844;52.380;7.018;2023-08-06T13:21:32;4.32;;;3.90;;
39098;SDS011;24844;52.380;7.018;2023-08-06T13:23:59;6.85;;;6.35;;
39098;SDS011;24844;52.380;7.018;2023-08-06T13:26:26;4.80;;;3.60;;
39098;SDS011;24844;52.380;7.018;2023-08-06T13:28:52;4.30;;;3.90;;
39098;SDS011;24844;52.380;7.018;2023-08-06T13:31:17;4.10;;;3.80;;
39098;SDS011;24844;52.380;7.018;2023-08-06T13:33:43;5.95;;;5.40;;
39098;SDS011;24844;52.380;7.018;2023-08-06T13:36:09;3.90;;;3.55;;
39098;SDS011;24844;52.380;7.018;2023-08-06T13:38:34;4.07;;;3.13;;
39098;SDS011;24844;52.380;7.018;2023-08-06T13:41:00;3.97;;;2.90;;
39098;SDS011;24844;52.380;7.018;2023-08-06T13:43:27;3.30;;;2.85;;
39098;SDS011;24844;52.380;7.018;2023-08-06T13:45:53;3.15;;;2.60;;
39098;SDS011;24844;52.380;7.018;2023-08-06T13:48:18;5.72;;;3.65;;
39098;SDS011;24844;52.380;7.018;2023-08-06T13:50:44;5.75;;;2.60;;
39098;SDS011;24844;52.380;7.018;2023-08-06T13:53:09;3.10;;;2.90;;
39098;SDS011;24844;52.380;7.018;2023-08-06T13:55:35;3.75;;;3.45;;
39098;SDS011;24844;52.380;7.018;2023-08-06T13:58:01;3.75;;;3.45;;
39098;SDS011;24844;52.380;7.018;2023-08-06T14:00:26;8.15;;;3.00;;
39098;SDS011;24844;52.380;7.018;2023-08-06T14:02:52;7.75;;;4.90;;
39098;SDS011;24844;52.380;7.018;2023-08-06T14:05:18;4.22;;;3.42;;
39098;SDS011;24844;52.380;7.018;2023-08-06T14:07:43;2.97;;;2.67;;
39098;SDS011;24844;52.380;7.018;2023-08-06T14:10:09;3.80;;;3.42;;
39098;SDS011;24844;52.380;7.018;2023-08-06T14:12:34;3.58;;;3.35;;
39098;SDS011;24844;52.380;7.018;2023-08-06T14:15:01;3.13;;;1.77;;
39098;SDS011;24844;52.380;7.018;2023-08-06T14:17:28;2.83;;;2.63;;
39098;SDS011;24844;52.380;7.018;2023-08-06T14:19:54;4.10;;;3.72;;
39098;SDS011;24844;52.380;7.018;2023-08-06T14:22:19;6.63;;;6.13;;
39098;SDS011;24844;52.380;7.018;2023-08-06T14:24:46;3.35;;;2.05;;
39098;SDS011;24844;52.380;7.018;2023-08-06T14:27:12;3.47;;;3.28;;
39098;SDS011;24844;52.380;7.018;2023-08-06T14:29:38;3.13;;;2.83;;
39098;SDS011;24844;52.380;7.018;2023-08-06T14:32:03;2.75;;;1.65;;
39098;SDS011;24844;52.380;7.018;2023-08-06T14:34:29;2.47;;;2.00;;
39098;SDS011;24844;52.380;7.018;2023-08-06T14:36:55;2.60;;;1.52;;
39098;SDS011;24844;52.380;7.018;2023-08-06T14:39:20;1.75;;;1.52;;
39098;SDS011;24844;52.380;7.018;2023-08-06T14:41:46;1.58;;;1.48;;
39098;SDS011;24844;52.380;7.018;2023-08-06T14:44:12;1.63;;;1.52;;
39098;SDS011;24844;52.380;7.018;2023-08-06T14:46:37;1.65;;;1.45;;